createdAt,value
2022-08-19T00:00:10.852Z,335.58
2022-08-19T00:00:43.383Z,336.10
2022-08-19T00:01:15.744Z,359.98
2022-08-19T00:02:01.398Z,356.50
2022-08-19T00:02:33.676Z,345.02
2022-08-19T00:03:06.503Z,349.15
2022-08-19T00:03:38.808Z,402.50
2022-08-19T00:04:13.164Z,327.52
2022-08-19T00:04:48.027Z,313.08
2022-08-19T00:05:21.330Z,314.17
2022-08-19T00:05:53.563Z,285.88
2022-08-19T00:06:26.405Z,298.15
2022-08-19T00:06:58.875Z,306.45
2022-08-19T00:07:31.133Z,316.55
2022-08-19T00:08:03.747Z,302.00
2022-08-19T00:08:35.992Z,301.02
2022-08-19T00:09:16.679Z,306.42
2022-08-19T00:09:48.920Z,292.85
2022-08-19T00:10:21.687Z,291.35
2022-08-19T00:10:54.037Z,307.08
2022-08-19T00:11:28.644Z,308.90
2022-08-19T00:12:00.904Z,314.80
2022-08-19T00:12:33.327Z,305.58
2022-08-19T00:13:11.524Z,312.83
2022-08-19T00:13:43.801Z,306.40
2022-08-19T00:14:17.558Z,289.48
2022-08-19T00:14:49.804Z,310.55
2022-08-19T00:15:22.498Z,326.65
2022-08-19T00:15:54.741Z,327.15
2022-08-19T00:16:27.370Z,381.90
2022-08-19T00:16:59.653Z,352.45
2022-08-19T00:17:32.011Z,307.17
2022-08-19T00:18:04.321Z,367.70
2022-08-19T00:18:36.609Z,331.92
2022-08-19T00:19:09.399Z,350.67
2022-08-19T00:19:41.873Z,341.45
2022-08-19T00:20:17.810Z,347.80
2022-08-19T00:20:50.022Z,324.63
2022-08-19T00:21:22.591Z,327.10
2022-08-19T00:21:55.480Z,308.73
2022-08-19T00:22:29.500Z,315.85
2022-08-19T00:23:01.732Z,303.23
2022-08-19T00:23:35.901Z,342.00
2022-08-19T00:24:09.278Z,349.88
2022-08-19T00:24:42.268Z,401.00
2022-08-19T00:25:30.580Z,306.95
2022-08-19T00:26:35.481Z,311.20
2022-08-19T00:27:26.111Z,320.08
2022-08-19T00:28:00.074Z,318.70
2022-08-19T00:28:34.139Z,316.35
2022-08-19T00:29:10.122Z,336.85
2022-08-19T00:29:42.314Z,304.75
2022-08-19T00:30:14.658Z,301.55
2022-08-19T00:30:47.035Z,306.75
2022-08-19T00:31:19.477Z,298.27
2022-08-19T00:31:54.648Z,288.73
2022-08-19T00:32:27.224Z,294.92
2022-08-19T00:32:59.972Z,293.25
2022-08-19T00:33:35.217Z,298.60
2022-08-19T00:34:07.439Z,295.48
2022-08-19T00:34:40.119Z,296.83
2022-08-19T00:35:12.449Z,298.42
2022-08-19T00:35:44.740Z,298.35
2022-08-19T00:36:17.065Z,298.52
2022-08-19T00:36:50.085Z,299.73
2022-08-19T00:37:24.175Z,299.35
2022-08-19T00:37:57.267Z,294.75
2022-08-19T00:38:37.834Z,294.17
2022-08-19T00:39:10.486Z,300.08
2022-08-19T00:39:42.814Z,290.23
2022-08-19T00:40:15.516Z,305.05
2022-08-19T00:40:47.822Z,303.75
2022-08-19T00:41:22.265Z,302.52
2022-08-19T00:41:54.698Z,303.95
2022-08-19T00:42:29.483Z,298.05
2022-08-19T00:43:01.709Z,293.10
2022-08-19T00:43:34.121Z,297.10
2022-08-19T00:44:06.470Z,296.83
2022-08-19T00:44:39.160Z,295.85
2022-08-19T00:45:16.070Z,290.42
2022-08-19T00:45:48.965Z,297.75
2022-08-19T00:46:21.607Z,308.00
2022-08-19T00:46:57.833Z,297.90
2022-08-19T00:47:30.679Z,303.00
2022-08-19T00:48:11.778Z,296.70
2022-08-19T00:48:47.184Z,304.27
2022-08-19T00:49:22.441Z,311.83
2022-08-19T00:49:59.331Z,305.45
2022-08-19T00:50:31.788Z,308.83
2022-08-19T00:51:05.421Z,314.73
2022-08-19T00:51:38.136Z,312.48
2022-08-19T00:52:13.939Z,311.67
2022-08-19T00:52:49.420Z,322.17
2022-08-19T00:53:23.762Z,348.77
2022-08-19T00:53:58.096Z,376.77
2022-08-19T00:54:32.501Z,352.95
2022-08-19T00:55:06.438Z,379.80
2022-08-19T00:55:39.146Z,360.00
2022-08-19T00:56:13.469Z,315.80
2022-08-19T00:56:46.105Z,347.80
2022-08-19T00:57:19.652Z,354.15
2022-08-19T00:57:59.382Z,444.85
2022-08-19T00:58:33.535Z,417.55
2022-08-19T00:59:09.999Z,411.92
2022-08-19T00:59:56.226Z,336.85
2022-08-19T01:00:37.648Z,350.27
2022-08-19T01:01:10.034Z,329.42
2022-08-19T01:01:45.390Z,428.83
2022-08-19T01:02:17.867Z,386.30
2022-08-19T01:02:50.146Z,339.30
2022-08-19T01:03:22.852Z,395.08
2022-08-19T01:03:58.833Z,399.08
2022-08-19T01:04:31.284Z,343.92
2022-08-19T01:05:05.835Z,387.55
2022-08-19T01:05:40.648Z,375.48
2022-08-19T01:06:12.856Z,379.85
2022-08-19T01:06:45.064Z,342.55
2022-08-19T01:07:19.763Z,368.95
2022-08-19T01:07:52.414Z,403.52
2022-08-19T01:08:24.682Z,345.73
2022-08-19T01:08:56.936Z,376.90
2022-08-19T01:09:29.795Z,387.30
2022-08-19T01:10:02.543Z,407.52
2022-08-19T01:10:38.227Z,315.52
2022-08-19T01:11:10.506Z,315.38
2022-08-19T01:11:45.612Z,310.25
2022-08-19T01:12:18.650Z,321.30
2022-08-19T01:12:52.255Z,404.73
2022-08-19T01:13:26.016Z,357.30
2022-08-19T01:13:58.389Z,376.02
2022-08-19T01:14:31.147Z,381.00
2022-08-19T01:15:04.290Z,389.33
2022-08-19T01:15:42.385Z,361.48
2022-08-19T01:16:14.821Z,370.42
2022-08-19T01:16:48.052Z,388.30
2022-08-19T01:17:20.451Z,394.52
2022-08-19T01:17:53.176Z,360.83
2022-08-19T01:18:26.693Z,350.88
2022-08-19T01:18:58.957Z,367.38
2022-08-19T01:19:43.379Z,353.50
2022-08-19T01:20:20.828Z,348.17
2022-08-19T01:20:55.392Z,346.23
2022-08-19T01:21:30.782Z,358.00
2022-08-19T01:22:16.859Z,381.25
2022-08-19T01:22:50.865Z,369.00
2022-08-19T01:23:43.078Z,361.50
2022-08-19T01:24:16.162Z,350.05
2022-08-19T01:24:50.017Z,350.33
2022-08-19T01:25:29.457Z,391.30
2022-08-19T01:26:02.028Z,379.25
2022-08-19T01:26:39.131Z,386.08
2022-08-19T01:27:14.397Z,346.85
2022-08-19T01:27:49.176Z,383.25
2022-08-19T01:28:34.224Z,404.13
2022-08-19T01:29:12.978Z,380.30
2022-08-19T01:29:45.968Z,376.55
2022-08-19T01:30:21.263Z,378.58
2022-08-19T01:30:53.726Z,373.70
2022-08-19T01:31:32.730Z,396.40
2022-08-19T01:32:05.460Z,407.27
2022-08-19T01:32:37.760Z,363.10
2022-08-19T01:33:10.148Z,375.30
2022-08-19T01:33:42.500Z,382.42
2022-08-19T01:34:15.042Z,371.20
2022-08-19T01:34:48.069Z,382.83
2022-08-19T01:35:21.233Z,361.25
2022-08-19T01:35:53.748Z,358.35
2022-08-19T01:36:29.577Z,353.95
2022-08-19T01:37:06.423Z,365.33
2022-08-19T01:37:49.134Z,382.23
2022-08-19T01:38:25.045Z,361.92
2022-08-19T01:38:57.333Z,361.40
2022-08-19T01:39:29.746Z,368.38
2022-08-19T01:40:05.250Z,376.75
2022-08-19T01:40:41.065Z,384.75
2022-08-19T01:41:13.510Z,407.60
2022-08-19T01:41:45.973Z,390.02
2022-08-19T01:42:18.184Z,388.15
2022-08-19T01:42:51.169Z,396.15
2022-08-19T01:43:23.608Z,408.45
2022-08-19T01:44:17.995Z,397.10
2022-08-19T01:44:50.035Z,383.65
2022-08-19T01:45:23.454Z,374.58
2022-08-19T01:45:55.885Z,386.58
2022-08-19T01:46:28.116Z,371.85
2022-08-19T01:47:00.472Z,366.17
2022-08-19T01:47:32.904Z,332.30
2022-08-19T01:48:05.379Z,306.23
2022-08-19T01:48:41.875Z,287.17
2022-08-19T01:49:14.199Z,287.88
2022-08-19T01:49:46.404Z,315.65
2022-08-19T01:50:19.254Z,323.52
2022-08-19T01:50:53.346Z,342.98
2022-08-19T01:51:25.776Z,346.50
2022-08-19T01:51:58.448Z,314.15
2022-08-19T01:52:30.874Z,313.70
2022-08-19T01:53:07.579Z,319.08
2022-08-19T01:53:40.572Z,335.60
2022-08-19T01:54:13.981Z,353.35
2022-08-19T01:54:55.619Z,331.17
2022-08-19T01:55:27.883Z,312.67
2022-08-19T01:56:00.483Z,289.50
2022-08-19T01:56:32.921Z,297.65
2022-08-19T01:57:08.235Z,300.25
2022-08-19T01:57:42.013Z,287.80
2022-08-19T01:58:17.621Z,317.13
2022-08-19T01:58:56.331Z,321.25
2022-08-19T01:59:28.877Z,302.15
2022-08-19T02:00:04.136Z,311.77
2022-08-19T02:00:44.308Z,297.73
2022-08-19T02:01:16.771Z,312.80
2022-08-19T02:01:49.240Z,310.95
2022-08-19T02:02:21.633Z,286.70
2022-08-19T02:02:54.042Z,309.63
2022-08-19T02:03:26.545Z,308.75
2022-08-19T02:03:59.528Z,332.08
2022-08-19T02:04:31.788Z,303.40
2022-08-19T02:05:04.315Z,299.25
2022-08-19T02:05:36.578Z,311.33
2022-08-19T02:06:09.054Z,310.70
2022-08-19T02:06:41.504Z,309.58
2022-08-19T02:07:13.733Z,302.98
2022-08-19T02:07:45.964Z,307.40
2022-08-19T02:08:18.241Z,313.15
2022-08-19T02:08:50.650Z,308.73
2022-08-19T02:09:24.014Z,312.33
2022-08-19T02:09:57.200Z,309.23
2022-08-19T02:10:29.460Z,318.55
2022-08-19T02:11:01.764Z,310.35
2022-08-19T02:11:34.955Z,316.42
2022-08-19T02:12:08.880Z,301.05
2022-08-19T02:12:41.249Z,306.80
2022-08-19T02:13:14.550Z,312.10
2022-08-19T02:13:46.872Z,320.50
2022-08-19T02:14:19.128Z,323.50
2022-08-19T02:14:51.348Z,329.88
2022-08-19T02:15:23.675Z,325.08
2022-08-19T02:15:56.152Z,336.00
2022-08-19T02:16:28.801Z,317.17
2022-08-19T02:17:01.074Z,292.88
2022-08-19T02:17:33.279Z,318.27
2022-08-19T02:18:06.431Z,334.33
2022-08-19T02:18:38.874Z,333.05
2022-08-19T02:19:11.506Z,356.27
2022-08-19T02:19:43.825Z,345.10
2022-08-19T02:20:16.428Z,327.00
2022-08-19T02:20:48.860Z,331.15
2022-08-19T02:21:22.930Z,341.02
2022-08-19T02:21:55.138Z,351.80
2022-08-19T02:22:27.473Z,322.75
2022-08-19T02:22:59.672Z,323.38
2022-08-19T02:23:32.493Z,322.48
2022-08-19T02:24:05.291Z,327.70
2022-08-19T02:24:37.568Z,324.17
2022-08-19T02:25:11.039Z,329.70
2022-08-19T02:25:45.472Z,312.77
2022-08-19T02:26:18.198Z,349.65
2022-08-19T02:26:50.462Z,313.73
2022-08-19T02:27:22.980Z,310.08
2022-08-19T02:27:55.268Z,310.83
2022-08-19T02:28:27.565Z,308.13
2022-08-19T02:29:01.332Z,324.92
2022-08-19T02:29:33.665Z,331.33
2022-08-19T02:30:07.126Z,348.10
2022-08-19T02:30:39.623Z,339.05
2022-08-19T02:31:20.164Z,325.75
2022-08-19T02:31:52.726Z,327.45
2022-08-19T02:32:24.934Z,352.52
2022-08-19T02:32:57.505Z,334.77
2022-08-19T02:33:30.768Z,309.35
2022-08-19T02:34:03.141Z,307.75
2022-08-19T02:34:35.458Z,304.05
2022-08-19T02:35:12.467Z,306.52
2022-08-19T02:35:45.870Z,303.23
2022-08-19T02:36:20.578Z,308.52
2022-08-19T02:36:53.548Z,308.85
2022-08-19T02:37:44.986Z,293.27
2022-08-19T02:38:26.471Z,309.17
2022-08-19T02:38:58.771Z,322.27
2022-08-19T02:39:31.117Z,323.90
2022-08-19T02:40:04.402Z,325.85
2022-08-19T02:40:52.878Z,348.17
2022-08-19T02:41:27.349Z,321.02
2022-08-19T02:42:00.719Z,330.65
2022-08-19T02:42:33.333Z,342.42
2022-08-19T02:43:08.419Z,349.02
2022-08-19T02:43:41.903Z,345.45
2022-08-19T02:44:33.652Z,329.40
2022-08-19T02:45:06.643Z,318.77
2022-08-19T02:45:40.582Z,326.10
2022-08-19T02:46:19.120Z,322.88
2022-08-19T02:46:51.876Z,331.10
2022-08-19T02:47:24.881Z,330.02
2022-08-19T02:47:58.315Z,339.15
2022-08-19T02:48:31.207Z,349.92
2022-08-19T02:49:07.090Z,330.90
2022-08-19T02:49:39.503Z,339.17
2022-08-19T02:50:11.797Z,321.08
2022-08-19T02:50:53.306Z,289.67
2022-08-19T02:51:27.449Z,296.48
2022-08-19T02:51:59.719Z,279.58
2022-08-19T02:52:33.026Z,293.15
2022-08-19T02:53:05.624Z,285.98
2022-08-19T02:53:38.432Z,288.58
2022-08-19T02:54:11.900Z,283.35
2022-08-19T02:54:44.828Z,277.55
2022-08-19T02:55:17.154Z,276.67
2022-08-19T02:55:49.960Z,273.65
2022-08-19T02:56:22.436Z,269.70
2022-08-19T02:56:54.698Z,279.45
2022-08-19T02:57:27.791Z,281.70
2022-08-19T02:58:00.926Z,282.13
2022-08-19T02:58:33.140Z,282.45
2022-08-19T02:59:11.309Z,274.67
2022-08-19T02:59:44.160Z,286.25
2022-08-19T03:00:17.298Z,276.90
2022-08-19T03:00:51.282Z,274.45
2022-08-19T03:01:28.198Z,280.83
2022-08-19T03:02:00.647Z,290.65
2022-08-19T03:02:32.876Z,281.25
2022-08-19T03:03:05.108Z,288.10
2022-08-19T03:03:37.964Z,284.30
2022-08-19T03:04:12.183Z,287.10
2022-08-19T03:04:44.510Z,286.02
2022-08-19T03:05:16.916Z,286.45
2022-08-19T03:05:56.970Z,271.05
2022-08-19T03:06:30.134Z,280.42
2022-08-19T03:07:07.197Z,260.95
2022-08-19T03:07:43.577Z,284.30
2022-08-19T03:08:16.283Z,287.35
2022-08-19T03:08:49.800Z,273.25
2022-08-19T03:09:22.337Z,292.65
2022-08-19T03:09:54.583Z,293.52
2022-08-19T03:10:26.798Z,292.58
2022-08-19T03:10:59.110Z,314.65
2022-08-19T03:11:32.857Z,316.33
2022-08-19T03:12:05.895Z,294.30
2022-08-19T03:12:39.082Z,276.92
2022-08-19T03:13:12.608Z,310.00
2022-08-19T03:13:45.384Z,310.67
2022-08-19T03:14:19.176Z,314.77
2022-08-19T03:14:53.043Z,322.83
2022-08-19T03:15:25.288Z,335.23
2022-08-19T03:15:57.828Z,327.77
2022-08-19T03:16:33.513Z,334.13
2022-08-19T03:17:06.448Z,359.55
2022-08-19T03:17:38.708Z,329.05
2022-08-19T03:18:11.355Z,336.75
2022-08-19T03:18:45.496Z,320.80
2022-08-19T03:19:19.490Z,349.45
2022-08-19T03:19:51.744Z,330.35
2022-08-19T03:20:24.070Z,332.42
2022-08-19T03:20:57.082Z,329.63
2022-08-19T03:21:31.282Z,355.50
2022-08-19T03:22:05.299Z,292.73
2022-08-19T03:22:37.614Z,313.70
2022-08-19T03:23:09.944Z,304.10
2022-08-19T03:23:42.244Z,328.45
2022-08-19T03:24:15.203Z,345.00
2022-08-19T03:24:47.526Z,301.77
2022-08-19T03:25:19.751Z,292.20
2022-08-19T03:26:03.991Z,296.77
2022-08-19T03:26:48.760Z,286.63
2022-08-19T03:27:21.078Z,298.17
2022-08-19T03:27:53.329Z,301.33
2022-08-19T03:28:25.802Z,299.05
2022-08-19T03:28:59.018Z,301.20
2022-08-19T03:29:32.727Z,355.27
2022-08-19T03:30:05.533Z,304.38
2022-08-19T03:30:41.813Z,296.20
2022-08-19T03:31:45.588Z,315.95
2022-08-19T03:32:08.082Z,315.10
2022-08-19T03:33:00.380Z,323.95
2022-08-19T03:33:33.457Z,314.20
2022-08-19T03:34:08.077Z,305.50
2022-08-19T03:34:40.488Z,302.27
2022-08-19T03:35:12.780Z,314.10
2022-08-19T03:35:46.195Z,316.13
2022-08-19T03:36:21.649Z,330.85
2022-08-19T03:36:57.955Z,335.67
2022-08-19T03:37:30.180Z,375.17
2022-08-19T03:38:02.405Z,322.00
2022-08-19T03:38:35.026Z,355.02
2022-08-19T03:39:09.486Z,328.60
2022-08-19T03:39:43.207Z,320.27
2022-08-19T03:40:16.623Z,328.55
2022-08-19T03:40:49.008Z,328.50
2022-08-19T03:41:26.012Z,332.95
2022-08-19T03:42:38.705Z,321.17
2022-08-19T03:43:08.761Z,331.55
2022-08-19T03:43:41.586Z,335.40
2022-08-19T03:44:16.612Z,331.77
2022-08-19T03:44:51.086Z,345.70
2022-08-19T03:45:23.717Z,355.17
2022-08-19T03:46:03.639Z,351.17
2022-08-19T03:46:35.962Z,342.13
2022-08-19T03:47:08.297Z,340.67
2022-08-19T03:47:40.848Z,346.90
2022-08-19T03:48:13.063Z,350.05
2022-08-19T03:48:45.347Z,315.33
2022-08-19T03:49:18.713Z,302.05
2022-08-19T03:49:51.946Z,335.00
2022-08-19T03:50:25.440Z,322.05
2022-08-19T03:50:59.517Z,334.30
2022-08-19T03:51:35.866Z,326.08
2022-08-19T03:52:08.841Z,333.20
2022-08-19T03:52:41.262Z,333.48
2022-08-19T03:53:19.185Z,325.63
2022-08-19T03:53:51.751Z,326.88
2022-08-19T03:54:24.819Z,303.38
2022-08-19T03:54:57.170Z,299.33
2022-08-19T03:55:29.456Z,284.15
2022-08-19T03:56:02.187Z,292.45
2022-08-19T03:56:38.375Z,300.08
2022-08-19T03:57:10.699Z,304.77
2022-08-19T03:57:43.007Z,323.55
2022-08-19T03:58:15.356Z,324.95
2022-08-19T03:58:48.080Z,320.88
2022-08-19T03:59:26.196Z,312.63
2022-08-19T04:00:12.850Z,312.67
2022-08-19T04:00:46.357Z,313.25
2022-08-19T04:01:20.383Z,322.10
2022-08-19T04:02:10.096Z,318.42
2022-08-19T04:02:58.564Z,319.55
2022-08-19T04:03:32.981Z,307.48
2022-08-19T04:04:05.454Z,320.35
2022-08-19T04:04:38.835Z,319.40
2022-08-19T04:05:11.480Z,310.30
2022-08-19T04:05:44.074Z,329.75
2022-08-19T04:06:22.162Z,319.15
2022-08-19T04:06:54.659Z,324.27
2022-08-19T04:07:26.880Z,314.77
2022-08-19T04:08:00.298Z,310.83
2022-08-19T04:08:32.836Z,322.08
2022-08-19T04:09:06.130Z,318.63
2022-08-19T04:09:38.691Z,322.42
2022-08-19T04:10:11.029Z,313.25
2022-08-19T04:10:43.945Z,316.27
2022-08-19T04:11:18.082Z,302.63
2022-08-19T04:11:54.757Z,305.83
2022-08-19T04:12:27.363Z,327.90
2022-08-19T04:12:59.779Z,330.83
2022-08-19T04:13:32.013Z,325.60
2022-08-19T04:14:04.592Z,325.48
2022-08-19T04:14:36.964Z,331.02
2022-08-19T04:15:09.478Z,331.48
2022-08-19T04:15:42.850Z,328.83
2022-08-19T04:16:15.575Z,338.00
2022-08-19T04:16:48.516Z,339.35
2022-08-19T04:17:20.806Z,321.63
2022-08-19T04:17:53.112Z,335.10
2022-08-19T04:18:25.372Z,315.90
2022-08-19T04:18:58.148Z,342.13
2022-08-19T04:19:31.142Z,348.95
2022-08-19T04:20:06.990Z,273.67
2022-08-19T04:20:43.562Z,285.67
2022-08-19T04:21:20.089Z,305.27
2022-08-19T04:21:54.040Z,299.70
2022-08-19T04:22:26.278Z,311.95
2022-08-19T04:23:01.098Z,340.65
2022-08-19T04:23:33.748Z,335.10
2022-08-19T04:24:06.601Z,343.83
2022-08-19T04:24:40.450Z,309.63
2022-08-19T04:25:12.844Z,315.27
2022-08-19T04:25:45.663Z,338.73
2022-08-19T04:26:25.941Z,326.83
2022-08-19T04:27:00.121Z,325.98
2022-08-19T04:27:32.398Z,337.73
2022-08-19T04:28:04.771Z,321.10
2022-08-19T04:28:37.845Z,332.92
2022-08-19T04:29:12.748Z,333.17
2022-08-19T04:29:45.189Z,334.10
2022-08-19T04:30:18.796Z,355.42
2022-08-19T04:30:52.448Z,349.27
2022-08-19T04:31:29.892Z,349.17
2022-08-19T04:32:09.406Z,356.17
2022-08-19T04:32:42.197Z,321.80
2022-08-19T04:33:16.464Z,335.90
2022-08-19T04:33:50.600Z,349.45
2022-08-19T04:34:24.482Z,338.00
2022-08-19T04:35:02.790Z,333.05
2022-08-19T04:35:49.762Z,357.17
2022-08-19T04:36:23.350Z,354.13
2022-08-19T04:36:57.249Z,326.23
2022-08-19T04:37:35.002Z,350.98
2022-08-19T04:38:08.190Z,326.98
2022-08-19T04:38:40.417Z,326.67
2022-08-19T04:39:14.382Z,332.92
2022-08-19T04:40:04.993Z,327.05
2022-08-19T04:41:03.077Z,323.25
2022-08-19T04:41:53.880Z,338.55
2022-08-19T04:42:41.299Z,323.70
2022-08-19T04:43:16.623Z,341.73
2022-08-19T04:43:49.961Z,333.88
2022-08-19T04:44:22.494Z,347.52
2022-08-19T04:44:55.415Z,352.02
2022-08-19T04:45:27.657Z,358.08
2022-08-19T04:46:05.044Z,316.00
2022-08-19T04:46:40.303Z,327.25
2022-08-19T04:47:47.104Z,312.08
2022-08-19T04:48:26.393Z,304.73
2022-08-19T04:49:00.139Z,326.83
2022-08-19T04:49:42.911Z,306.80
2022-08-19T04:50:15.635Z,335.92
2022-08-19T04:50:52.027Z,338.45
2022-08-19T04:51:24.273Z,329.15
2022-08-19T04:51:56.694Z,343.67
2022-08-19T04:52:29.427Z,325.88
2022-08-19T04:53:01.655Z,323.10
2022-08-19T04:53:37.558Z,325.65
2022-08-19T04:54:10.568Z,295.25
2022-08-19T04:54:42.826Z,315.33
2022-08-19T04:55:15.642Z,312.35
2022-08-19T04:55:47.892Z,322.13
2022-08-19T04:56:21.970Z,336.75
2022-08-19T04:56:54.480Z,314.95
2022-08-19T04:57:27.376Z,345.52
2022-08-19T04:57:59.626Z,313.60
2022-08-19T04:58:32.447Z,325.80
2022-08-19T04:59:05.256Z,309.83
2022-08-19T04:59:38.497Z,314.90
2022-08-19T05:00:11.160Z,311.55
2022-08-19T05:00:43.452Z,334.17
2022-08-19T05:01:19.387Z,338.75
2022-08-19T05:01:51.866Z,336.27
2022-08-19T05:02:25.741Z,319.45
2022-08-19T05:02:57.990Z,312.95
2022-08-19T05:03:33.970Z,310.60
2022-08-19T05:04:07.257Z,312.33
2022-08-19T05:04:40.508Z,299.33
2022-08-19T05:05:13.609Z,309.13
2022-08-19T05:05:46.811Z,312.15
2022-08-19T05:06:20.337Z,317.38
2022-08-19T05:06:59.411Z,312.60
2022-08-19T05:07:33.390Z,318.40
2022-08-19T05:08:06.522Z,301.10
2022-08-19T05:08:42.019Z,320.88
2022-08-19T05:09:15.073Z,333.80
2022-08-19T05:09:57.068Z,322.88
2022-08-19T05:10:31.873Z,299.65
2022-08-19T05:11:09.476Z,290.45
2022-08-19T05:11:42.404Z,352.00
2022-08-19T05:12:14.727Z,336.08
2022-08-19T05:12:47.189Z,345.23
2022-08-19T05:13:20.444Z,340.05
2022-08-19T05:13:53.340Z,307.00
2022-08-19T05:14:25.731Z,312.38
2022-08-19T05:14:58.674Z,292.23
2022-08-19T05:15:31.239Z,312.67
2022-08-19T05:16:03.755Z,321.17
2022-08-19T05:16:35.987Z,309.20
2022-08-19T05:17:26.525Z,305.17
2022-08-19T05:18:18.039Z,319.02
2022-08-19T05:19:11.613Z,313.05
2022-08-19T05:20:02.398Z,326.70
2022-08-19T05:20:53.202Z,330.10
2022-08-19T05:21:44.572Z,362.58
2022-08-19T05:22:36.664Z,345.10
2022-08-19T05:23:20.551Z,313.98
2022-08-19T05:23:53.334Z,302.33
2022-08-19T05:24:25.792Z,305.60
2022-08-19T05:25:12.156Z,304.58
2022-08-19T05:25:45.586Z,309.92
2022-08-19T05:26:17.823Z,299.52
2022-08-19T05:26:50.789Z,302.80
2022-08-19T05:27:23.040Z,304.58
2022-08-19T05:27:55.329Z,302.85
2022-08-19T05:28:28.674Z,302.45
2022-08-19T05:29:04.507Z,296.15
2022-08-19T05:29:36.828Z,307.80
2022-08-19T05:30:09.611Z,276.45
2022-08-19T05:30:47.130Z,302.40
2022-08-19T05:31:20.527Z,307.13
2022-08-19T05:31:53.594Z,285.55
2022-08-19T05:32:26.202Z,308.85
2022-08-19T05:32:58.539Z,302.42
2022-08-19T05:33:31.090Z,308.60
2022-08-19T05:34:04.681Z,308.95
2022-08-19T05:34:50.444Z,313.63
2022-08-19T05:35:24.499Z,309.02
2022-08-19T05:35:57.134Z,303.25
2022-08-19T05:36:33.957Z,309.58
2022-08-19T05:37:06.688Z,314.80
2022-08-19T05:37:41.426Z,312.92
2022-08-19T05:38:14.016Z,314.25
2022-08-19T05:38:46.576Z,313.88
2022-08-19T05:39:21.400Z,337.25
2022-08-19T05:39:53.992Z,336.85
2022-08-19T05:40:26.307Z,332.10
2022-08-19T05:40:59.152Z,349.30
2022-08-19T05:41:31.600Z,322.52
2022-08-19T05:42:07.987Z,335.73
2022-08-19T05:42:40.222Z,299.10
2022-08-19T05:43:12.467Z,329.27
2022-08-19T05:43:44.721Z,336.38
2022-08-19T05:44:17.835Z,331.42
2022-08-19T05:44:50.607Z,335.95
2022-08-19T05:45:22.957Z,316.13
2022-08-19T05:45:55.271Z,350.30
2022-08-19T05:46:28.187Z,345.40
2022-08-19T05:47:01.444Z,351.15
2022-08-19T05:47:33.848Z,338.45
2022-08-19T05:48:06.323Z,314.00
2022-08-19T05:48:38.641Z,306.88
2022-08-19T05:49:10.881Z,337.27
2022-08-19T05:49:43.707Z,307.27
2022-08-19T05:50:16.013Z,304.92
2022-08-19T05:50:51.429Z,307.08
2022-08-19T05:51:28.831Z,317.42
2022-08-19T05:52:09.500Z,348.42
2022-08-19T05:52:43.804Z,326.48
2022-08-19T05:53:22.434Z,332.60
2022-08-19T05:53:54.711Z,327.55
2022-08-19T05:54:27.840Z,326.48
2022-08-19T05:55:00.107Z,339.83
2022-08-19T05:55:32.947Z,335.52
2022-08-19T05:56:06.477Z,333.23
2022-08-19T05:56:39.223Z,347.20
2022-08-19T05:57:12.066Z,345.65
2022-08-19T05:57:45.729Z,328.40
2022-08-19T05:58:18.400Z,315.58
2022-08-19T05:58:55.383Z,323.83
2022-08-19T05:59:30.752Z,316.40
2022-08-19T06:00:09.526Z,325.50
2022-08-19T06:00:44.702Z,320.83
2022-08-19T06:01:18.164Z,326.85
2022-08-19T06:01:51.708Z,360.95
2022-08-19T06:02:24.030Z,342.58
2022-08-19T06:02:57.604Z,335.02
2022-08-19T06:03:29.869Z,313.13
2022-08-19T06:04:02.580Z,306.00
2022-08-19T06:04:34.929Z,298.42
2022-08-19T06:05:08.356Z,301.45
2022-08-19T06:05:42.329Z,306.67
2022-08-19T06:06:22.120Z,296.33
2022-08-19T06:06:55.042Z,299.55
2022-08-19T06:07:27.413Z,307.88
2022-08-19T06:08:02.388Z,310.23
2022-08-19T06:08:35.158Z,308.30
2022-08-19T06:09:07.911Z,290.65
2022-08-19T06:09:40.917Z,281.42
2022-08-19T06:10:13.142Z,290.27
2022-08-19T06:10:45.423Z,277.20
2022-08-19T06:11:17.678Z,277.98
2022-08-19T06:11:59.903Z,258.83
2022-08-19T06:12:36.088Z,284.67
2022-08-19T06:13:08.423Z,282.58
2022-08-19T06:13:40.721Z,287.73
2022-08-19T06:14:18.264Z,274.88
2022-08-19T06:14:56.040Z,288.38
2022-08-19T06:15:34.063Z,276.80
2022-08-19T06:16:06.456Z,285.35
2022-08-19T06:16:39.884Z,284.80
2022-08-19T06:17:12.412Z,291.20
2022-08-19T06:17:45.563Z,283.38
2022-08-19T06:18:18.201Z,275.42
2022-08-19T06:18:52.700Z,274.65
2022-08-19T06:19:25.434Z,281.40
2022-08-19T06:19:57.973Z,286.60
2022-08-19T06:20:54.430Z,274.90
2022-08-19T06:21:28.277Z,263.35
2022-08-19T06:22:01.298Z,278.15
2022-08-19T06:22:38.842Z,284.38
2022-08-19T06:23:11.167Z,285.08
2022-08-19T06:23:50.066Z,279.90
2022-08-19T06:24:26.492Z,256.75
2022-08-19T06:24:58.841Z,284.73
2022-08-19T06:25:31.592Z,282.95
2022-08-19T06:26:03.845Z,277.85
2022-08-19T06:26:36.839Z,272.48
2022-08-19T06:27:09.350Z,272.42
2022-08-19T06:28:11.442Z,273.85
2022-08-19T06:28:34.605Z,252.98
2022-08-19T06:29:07.477Z,261.38
2022-08-19T06:29:39.759Z,285.25
2022-08-19T06:30:13.667Z,281.20
2022-08-19T06:30:45.960Z,270.60
2022-08-19T06:31:19.264Z,277.70
2022-08-19T06:31:53.061Z,274.80
2022-08-19T06:32:25.460Z,275.17
2022-08-19T06:32:57.795Z,271.13
2022-08-19T06:33:30.023Z,263.63
2022-08-19T06:34:04.113Z,264.25
2022-08-19T06:34:36.705Z,270.60
2022-08-19T06:35:09.094Z,244.60
2022-08-19T06:35:42.020Z,266.05
2022-08-19T06:36:19.920Z,271.05
2022-08-19T06:36:52.993Z,261.35
2022-08-19T06:37:25.290Z,262.58
2022-08-19T06:37:57.758Z,255.38
2022-08-19T06:38:30.283Z,262.50
2022-08-19T06:39:04.904Z,264.13
2022-08-19T06:39:39.469Z,250.07
2022-08-19T06:40:13.662Z,258.67
2022-08-19T06:40:46.084Z,260.52
2022-08-19T06:41:18.315Z,271.63
2022-08-19T06:41:55.463Z,265.27
2022-08-19T06:42:29.152Z,239.27
2022-08-19T06:43:03.689Z,255.18
2022-08-19T06:43:42.220Z,270.90
2022-08-19T06:44:15.200Z,259.77
2022-08-19T06:44:53.163Z,260.38
2022-08-19T06:45:35.750Z,264.13
2022-08-19T06:46:16.070Z,271.77
2022-08-19T06:46:53.540Z,266.52
2022-08-19T06:47:28.614Z,262.98
2022-08-19T06:48:01.630Z,270.60
2022-08-19T06:48:37.721Z,265.75
2022-08-19T06:49:18.175Z,271.63
2022-08-19T06:49:51.189Z,261.85
2022-08-19T06:50:26.393Z,266.02
2022-08-19T06:50:58.708Z,272.02
2022-08-19T06:52:14.189Z,264.55
2022-08-19T06:52:48.001Z,265.02
2022-08-19T06:53:21.028Z,264.25
2022-08-19T06:53:55.499Z,268.63
2022-08-19T06:54:30.799Z,258.23
2022-08-19T06:55:06.100Z,268.92
2022-08-19T06:55:38.854Z,268.65
2022-08-19T06:56:11.093Z,257.73
2022-08-19T06:56:44.592Z,265.92
2022-08-19T06:57:17.035Z,263.13
2022-08-19T06:57:49.460Z,258.15
2022-08-19T06:58:21.846Z,270.08
2022-08-19T06:58:54.109Z,255.52
2022-08-19T06:59:29.311Z,268.63
2022-08-19T07:00:01.982Z,266.90
2022-08-19T07:00:34.985Z,269.73
2022-08-19T07:01:09.191Z,267.30
2022-08-19T07:01:43.048Z,262.90
2022-08-19T07:02:15.392Z,259.58
2022-08-19T07:02:53.219Z,259.15
2022-08-19T07:03:30.110Z,260.63
2022-08-19T07:04:05.977Z,272.98
2022-08-19T07:04:42.172Z,264.88
2022-08-19T07:05:14.893Z,266.25
2022-08-19T07:05:47.327Z,266.60
2022-08-19T07:07:20.327Z,270.90
2022-08-19T07:07:53.711Z,264.13
2022-08-19T07:08:29.985Z,265.83
2022-08-19T07:09:02.330Z,270.75
2022-08-19T07:09:38.255Z,256.13
2022-08-19T07:10:10.942Z,260.55
2022-08-19T07:10:45.693Z,262.48
2022-08-19T07:11:19.359Z,272.23
2022-08-19T07:11:53.496Z,261.73
2022-08-19T07:12:25.793Z,267.33
2022-08-19T07:13:00.028Z,268.10
2022-08-19T07:13:34.991Z,269.35